FW1542 Weather Reports


time (UTC)temp
C
wind
direction
speed
KPH
gust
KPH
rain 1hr
cm
rain 24hr
cm
rain mn
cm
humidity
%
barometer
mb
20220627213007 33 5 12.9 29.0 0.00 0.00 0.00 48 1016.3
20220627211504 32 9 14.5 33.8 0.00 0.00 0.00 50 1016.1
20220627210105 32 15 14.5 37.0 0.00 0.00 0.00 53 1016.3
20220627204507 32 49 17.7 43.5 0.00 0.00 0.00 52 1016.4
20220627203103 33 28 19.3 41.8 0.00 0.00 0.00 48 1017.0
20220627201503 37 24 3.2 24.1 0.00 0.00 0.00 34 1016.2
20220627200105 37 169 6.4 20.9 0.00 0.00 0.00 33 1016.2
20220627194604 38 119 4.8 16.1 0.00 0.00 0.00 34 1016.3
20220627193105 38 148 9.7 25.7 0.00 0.00 0.00 33 1016.5
20220627191503 38 184 3.2 22.5 0.00 0.00 0.00 33 1016.8
20220627190114 38 80 6.4 12.9 0.00 0.00 0.00 34 1017.1
20220627184503 37 82 4.8 14.5 0.00 0.00 0.00 35 1017.4
20220627183103 37 127 11.3 19.3 0.00 0.00 0.00 33 1017.7
20220627181603 37 113 9.7 20.9 0.00 0.00 0.00 34 1017.9
20220627180004 37 70 6.4 20.9 0.00 0.00 0.00 33 1018.3
20220627174503 37 141 9.7 19.3 0.00 0.00 0.00 34 1018.4
20220627173003 37 60 3.2 16.1 0.00 0.00 0.00 37 1018.6
20220627171605 36 32 3.2 9.7 0.00 0.00 0.00 36 1018.9
20220627170004 36 69 8.0 14.5 0.00 0.00 0.00 35 1018.8
20220627164603 36 22 6.4 16.1 0.00 0.00 0.00 36 1019.0
20220627163003 36 65 4.8 14.5 0.00 0.00 0.00 35 1019.0
20220627161511 35 74 8.0 16.1 0.00 0.00 0.00 37 1019.2
20220627160004 34 36 6.4 12.9 0.00 0.00 0.00 42 1019.2
20220627154607 34 31 1.6 9.7 0.00 0.00 0.00 44 1019.2
20220627153003 33 336 1.6 11.3 0.00 0.00 0.00 48 1019.2
20220627151606 33 83 4.8 12.9 0.00 0.00 0.00 48 1019.5
20220627150013 33 344 0.0 12.9 0.00 0.00 0.00 50 1019.6
20220627144503 32 360 0.0 14.5 0.00 0.00 0.00 52 1019.8
20220627143004 32 341 0.0 6.4 0.00 0.00 0.00 53 1020.0
20220627141604 32 131 0.0 4.8 0.00 0.00 0.00 55 1020.0
20220627140002 31 351 0.0 4.8 0.00 0.00 0.00 58 1019.8
20220627134604 30 355 1.6 8.0 0.00 0.00 0.00 60 1019.7
20220627133014 28 11 3.2 6.4 0.00 0.00 0.00 65 1019.7
20220627131604 27 5 3.2 8.0 0.00 0.00 0.00 68 1019.7
20220627130008 26 13 6.4 16.1 0.00 0.00 0.00 73 1019.8
20220627124605 24 32 3.2 6.4 0.00 0.00 0.00 78 1019.6
20220627123027 23 205 0.0 0.0 0.00 0.00 0.00 80 1019.0
20220627000104 36 86 8.0 17.7 0.00 0.00 0.00 33 1014.6
20220626234506 36 116 11.3 24.1 0.00 0.00 0.00 33 1014.6
20220626233102 36 124 9.7 24.1 0.00 0.00 0.00 33 1014.5
20220626231506 36 105 6.4 17.7 0.00 0.00 0.00 33 1014.6
20220626230104 36 36 6.4 19.3 0.00 0.00 0.00 33 1014.7
20220626224502 36 87 8.0 22.5 0.00 0.00 0.00 33 1014.8
20220626223108 35 125 9.7 16.1 0.00 0.00 0.00 35 1015.1
20220626221503 37 111 8.0 19.3 0.00 0.00 0.00 33 1015.2
20220626220102 37 55 4.8 17.7 0.00 0.00 0.00 35 1015.4
20220626214503 36 99 0.0 14.5 0.00 0.00 0.00 35 1015.4